Terminal Aerodrome Forecast
Issued by NWS

Home | Current Version | Previous Version | Text Only | Print | Product List | Glossary Off
Versions: 1 2 3 4 5 6 7 8 9 10 11 12 13 14 15 16 17

926
FTUS43 KFGF 251720
TAFBJI
TAF
KBJI 251720Z 2518/2618 19007KT P6SM BKN018
      TEMPO 2518/2521 P6SM BKN040
     FM252100 21008KT P6SM BKN100
     FM260000 24007KT P6SM SCT150
     FM261000 30004KT P6SM SCT250=

USA.gov is the U.S. government's official web portal to all federal, state and local government web resources and services.